Time;durP1;ratioP1;P1;durP2;ratioP2;P2;SDS_P1;SDS_P2;PMS_P1;PMS_P2;Temp;Humidity;BMP_temperature;BMP_pressure;BME280_temperature;BME280_humidity;BME280_pressure;Samples;Min_cycle;Max_cycle;Signal;HPM_P1;HPM_P2
2023/04/11 00:02:53;;;;;;;8.30;5.82;;;;;;;9.04;100.00;100584.72;10150373;28;20093;-69
2023/04/11 00:07:52;;;;;;;8.68;6.13;;;;;;;9.02;100.00;100581.50;10142055;28;20079;-70
2023/04/11 00:12:55;;;;;;;9.18;5.82;;;;;;;9.04;100.00;100571.09;10143121;28;20074;-69
2023/04/11 00:17:57;;;;;;;8.13;5.20;;;;;;;9.01;100.00;100560.81;10147446;28;20428;-70
2023/04/11 00:22:54;;;;;;;6.77;4.83;;;;;;;9.00;100.00;100555.66;10148221;28;20049;-76
2023/04/11 00:27:50;;;;;;;6.10;4.60;;;;;;;8.98;100.00;100556.00;10142617;28;20071;-76
2023/04/11 00:32:48;;;;;;;7.03;5.38;;;;;;;8.92;100.00;100557.22;10143722;28;20146;-70
2023/04/11 00:37:45;;;;;;;6.25;4.80;;;;;;;8.88;100.00;100550.78;10145566;28;20096;-70
2023/04/11 00:42:42;;;;;;;8.95;4.93;;;;;;;8.89;100.00;100557.84;10143885;28;20089;-69
2023/04/11 00:47:39;;;;;;;7.47;4.85;;;;;;;8.85;100.00;100551.41;10149917;28;20101;-70
2023/04/11 00:52:37;;;;;;;7.22;5.32;;;;;;;8.84;100.00;100547.06;10147054;28;20078;-70
2023/04/11 00:57:34;;;;;;;8.10;4.45;;;;;;;8.77;100.00;100533.06;10149123;28;20108;-75
2023/04/11 01:02:30;;;;;;;8.68;5.38;;;;;;;8.74;100.00;100533.69;10163155;28;20074;-75
2023/04/11 01:07:33;;;;;;;5.85;4.50;;;;;;;8.81;100.00;100534.06;10144941;28;20046;-75
2023/04/11 01:12:37;;;;;;;8.10;5.35;;;;;;;8.76;100.00;100526.00;10147792;28;20042;-75
2023/04/11 01:17:34;;;;;;;8.15;4.88;;;;;;;8.79;100.00;100517.19;10139190;28;20530;-75
2023/04/11 01:22:31;;;;;;;6.80;5.15;;;;;;;8.72;100.00;100520.34;10149119;28;20042;-75
2023/04/11 01:27:29;;;;;;;5.30;4.40;;;;;;;8.70;100.00;100516.31;10138441;28;20043;-75
2023/04/11 01:32:27;;;;;;;6.07;4.45;;;;;;;8.68;100.00;100496.75;10136279;28;20046;-75
2023/04/11 01:37:24;;;;;;;10.40;4.65;;;;;;;8.64;100.00;100497.38;10141135;28;20133;-72
2023/04/11 01:42:21;;;;;;;6.38;4.30;;;;;;;8.66;100.00;100493.53;10144063;28;20153;-72
2023/04/11 01:47:18;;;;;;;4.25;3.83;;;;;;;8.70;100.00;100502.69;10146269;28;20073;-72
2023/04/11 01:52:14;;;;;;;6.15;4.45;;;;;;;8.69;100.00;100492.94;10143897;28;20221;-72
2023/04/11 01:57:11;;;;;;;8.73;4.25;;;;;;;8.69;100.00;100492.94;10143896;28;20042;-72
2023/04/11 02:02:07;;;;;;;4.57;3.92;;;;;;;8.66;100.00;100496.25;10138490;28;20046;-70
2023/04/11 02:07:04;;;;;;;4.88;3.67;;;;;;;8.54;100.00;100486.75;10142115;28;20050;-70
2023/04/11 02:12:01;;;;;;;8.10;4.25;;;;;;;8.50;100.00;100496.63;10142121;28;20047;-70
2023/04/11 02:16:57;;;;;;;5.53;3.95;;;;;;;8.39;100.00;100484.34;10139395;28;20042;-72
2023/04/11 02:21:54;;;;;;;5.32;3.65;;;;;;;8.33;100.00;100491.00;10143877;28;20093;-73
2023/04/11 02:26:54;;;;;;;5.38;4.13;;;;;;;8.33;100.00;100474.66;10143161;28;20524;-74
2023/04/11 02:31:54;;;;;;;4.75;3.63;;;;;;;8.31;100.00;100476.88;10122103;28;20049;-74
2023/04/11 02:36:54;;;;;;;5.63;3.55;;;;;;;8.16;100.00;100454.34;10145646;28;20145;-73
2023/04/11 02:41:51;;;;;;;7.57;4.72;;;;;;;8.14;100.00;100440.22;10152181;28;20112;-73
2023/04/11 02:46:47;;;;;;;6.97;3.70;;;;;;;8.14;100.00;100445.69;10147861;28;20424;-72
2023/04/11 02:51:43;;;;;;;6.57;4.15;;;;;;;8.19;100.00;100431.13;10153951;28;20089;-73
2023/04/11 02:56:40;;;;;;;8.02;4.68;;;;;;;8.23;100.00;100432.94;10146643;28;20079;-72
2023/04/11 03:01:37;;;;;;;5.90;4.35;;;;;;;8.31;100.00;100438.75;10150996;28;20068;-73
2023/04/11 03:06:33;;;;;;;9.02;4.75;;;;;;;8.29;100.00;100451.91;10142389;28;20890;-73
2023/04/11 03:11:30;;;;;;;5.95;3.95;;;;;;;8.21;100.00;100440.63;10142703;28;20078;-73
2023/04/11 03:16:27;;;;;;;5.55;3.83;;;;;;;7.98;100.00;100419.91;10139688;28;20104;-73
2023/04/11 03:21:24;;;;;;;5.20;3.28;;;;;;;7.80;100.00;100408.09;10133357;28;20078;-73
2023/04/11 03:26:25;;;;;;;5.03;2.75;;;;;;;7.55;100.00;100384.97;10141276;28;20500;-69
2023/04/11 03:31:22;;;;;;;5.32;2.83;;;;;;;7.41;100.00;100408.66;10145934;28;20046;-70
2023/04/11 03:36:21;;;;;;;3.28;2.63;;;;;;;7.31;100.00;100417.81;10144115;28;20042;-70
2023/04/11 03:41:20;;;;;;;4.28;3.13;;;;;;;7.26;100.00;100432.31;10152108;28;20527;-70
2023/04/11 03:46:17;;;;;;;5.35;2.90;;;;;;;7.19;100.00;100436.56;10143773;28;20074;-71
2023/04/11 03:51:13;;;;;;;5.50;3.22;;;;;;;7.08;100.00;100431.34;10142400;28;20123;-67
2023/04/11 03:56:10;;;;;;;4.03;2.90;;;;;;;7.08;100.00;100435.97;10140902;28;20043;-68
2023/04/11 04:01:06;;;;;;;4.13;3.20;;;;;;;6.97;100.00;100429.91;10129396;28;20049;-68
2023/04/11 04:06:03;;;;;;;5.72;2.92;;;;;;;-146.18;100.00;67994.34;10146478;28;20112;-69
2023/04/11 04:10:59;;;;;;;4.25;3.30;;;;;;;7.02;100.00;100458.91;10138324;28;20053;-69
2023/04/11 04:15:56;;;;;;;8.30;3.50;;;;;;;7.00;100.00;100433.94;10146167;28;20045;-69
2023/04/11 04:20:53;;;;;;;3.45;3.10;;;;;;;7.00;100.00;100450.25;10144385;28;20145;-68
2023/04/11 04:25:50;;;;;;;4.47;3.03;;;;;;;7.02;100.00;100458.91;10139340;28;20047;-68
2023/04/11 04:30:52;;;;;;;5.03;3.38;;;;;;;6.98;100.00;100452.44;10142863;28;20124;-68
2023/04/11 04:35:56;;;;;;;5.10;3.60;;;;;;;6.89;100.00;100464.03;10131105;28;20050;-67
2023/04/11 04:40:56;;;;;;;4.60;3.10;;;;;;;6.87;100.00;100458.09;10148193;28;20072;-68
2023/04/11 04:45:53;;;;;;;8.00;3.60;;;;;;;6.84;100.00;100464.09;10121417;28;20041;-67
2023/04/11 04:50:50;;;;;;;5.95;3.60;;;;;;;6.84;100.00;100463.31;10122355;28;20082;-68
2023/04/11 04:55:46;;;;;;;7.00;3.65;;;;;;;6.80;100.00;100463.09;10121627;28;20050;-68
2023/04/11 05:00:43;;;;;;;5.35;4.00;;;;;;;6.79;100.00;100476.97;10121338;28;20043;-67
2023/04/11 05:05:40;;;;;;;6.03;3.90;;;;;;;6.82;100.00;100474.47;10127195;28;20061;-68
2023/04/11 05:10:36;;;;;;;6.70;4.75;;;;;;;6.79;100.00;100466.13;10123099;28;20761;-68
2023/04/11 05:15:33;;;;;;;5.88;3.95;;;;;;;6.76;100.00;100472.94;10138314;28;20050;-68
2023/04/11 05:20:29;;;;;;;8.68;4.32;;;;;;;6.74;100.00;100469.72;10133222;28;20061;-68
2023/04/11 05:25:26;;;;;;;6.32;4.10;;;;;;;6.76;100.00;100486.53;10142680;28;20042;-68
2023/04/11 05:30:22;;;;;;;6.28;5.20;;;;;;;6.68;100.00;100481.78;10146858;28;20655;-68
2023/04/11 05:35:20;;;;;;;5.97;4.70;;;;;;;6.58;100.00;100488.19;10134596;28;20129;-68
2023/04/11 05:40:17;;;;;;;8.02;5.10;;;;;;;6.52;100.00;100490.19;10141525;28;20248;-68
2023/04/11 05:45:13;;;;;;;8.18;4.72;;;;;;;6.57;100.00;100492.00;10139945;28;20057;-68
2023/04/11 05:50:10;;;;;;;6.50;4.95;;;;;;;6.56;100.00;100500.44;10140365;28;20043;-68
2023/04/11 05:55:06;;;;;;;6.53;5.22;;;;;;;6.60;100.00;100501.47;10143096;28;20069;-68
2023/04/11 06:00:23;;;;;;;9.13;5.20;;;;;;;6.62;100.00;100499.28;10141130;28;20093;-69
2023/04/11 06:05:20;;;;;;;9.43;5.20;;;;;;;6.79;100.00;100494.09;10141781;28;20055;-68
2023/04/11 06:10:16;;;;;;;8.95;5.20;;;;;;;6.80;100.00;100506.59;10149794;28;20074;-68
2023/04/11 06:15:13;;;;;;;9.43;5.10;;;;;;;6.94;100.00;100496.56;10148692;28;20113;-68
2023/04/11 06:20:10;;;;;;;7.30;5.40;;;;;;;7.10;100.00;100499.81;10154352;28;20519;-68
2023/04/11 06:25:07;;;;;;;6.80;4.88;;;;;;;6.90;100.00;100500.97;10150376;28;20635;-68
2023/04/11 06:30:04;;;;;;;6.68;5.25;;;;;;;6.81;100.00;100508.19;10148681;28;20051;-68
2023/04/11 06:35:01;;;;;;;8.85;4.80;;;;;;;6.81;100.00;100507.38;10153663;28;20054;-68
2023/04/11 06:39:59;;;;;;;12.95;7.50;;;;;;;6.82;100.00;100498.91;10143086;28;20046;-68
2023/04/11 06:44:55;;;;;;;8.40;6.03;;;;;;;6.73;100.00;100506.16;10144007;28;20203;-68
2023/04/11 06:49:52;;;;;;;9.43;6.97;;;;;;;6.86;100.00;100510.81;10146854;28;20508;-68
2023/04/11 06:54:48;;;;;;;7.93;5.97;;;;;;;6.84;100.00;100514.94;10148602;28;20094;-68
2023/04/11 06:59:45;;;;;;;9.95;6.72;;;;;;;6.88;100.00;100521.41;10146012;28;20096;-68
2023/04/11 07:04:41;;;;;;;9.20;5.88;;;;;;;6.97;100.00;100521.53;10143292;28;20137;-68
2023/04/11 07:09:38;;;;;;;8.00;6.10;;;;;;;7.10;100.00;100526.16;10148227;28;20473;-68
2023/04/11 07:14:35;;;;;;;6.40;4.90;;;;;;;7.16;100.00;100536.66;10149043;28;20043;-68
2023/04/11 07:19:31;;;;;;;5.30;4.80;;;;;;;6.95;100.00;100547.06;10144092;28;20042;-68
2023/04/11 07:24:29;;;;;;;4.53;4.13;;;;;;;6.56;100.00;100550.16;10145237;28;20068;-68
2023/04/11 07:29:26;;;;;;;10.23;3.90;;;;;;;6.06;100.00;100569.59;10149567;28;20073;-68
2023/04/11 07:34:22;;;;;;;3.80;3.50;;;;;;;5.85;100.00;100579.06;10148335;28;20121;-68
2023/04/11 07:39:19;;;;;;;4.22;3.47;;;;;;;5.81;100.00;100573.38;10142488;28;20137;-68
2023/04/11 07:44:15;;;;;;;4.20;3.50;;;;;;;5.89;100.00;100585.50;10146721;28;20055;-68
2023/04/11 07:49:12;;;;;;;5.43;3.60;;;;;;;5.98;100.00;100583.78;10148705;28;20419;-68
2023/04/11 07:54:08;;;;;;;5.70;3.65;;;;;;;6.15;100.00;100599.63;10139575;28;20472;-68
2023/04/11 07:59:05;;;;;;;4.60;4.20;;;;;;;6.20;100.00;100606.88;10146341;28;20042;-68
2023/04/11 08:04:01;;;;;;;4.28;3.88;;;;;;;6.06;100.00;100618.44;10140716;28;20078;-68
2023/04/11 08:08:59;;;;;;;4.57;3.60;;;;;;;6.16;100.00;100622.13;10141677;28;20043;-69
2023/04/11 08:13:56;;;;;;;5.25;4.18;;;;;;;6.09;100.00;100628.72;10141950;28;20042;-68
2023/04/11 08:18:52;;;;;;;3.92;3.47;;;;;;;6.05;100.00;100619.53;10147947;28;20046;-68
2023/04/11 08:23:49;;;;;;;4.18;3.40;;;;;;;6.06;100.00;100631.22;10139346;28;20041;-68
2023/04/11 08:28:49;;;;;;;4.57;4.18;;;;;;;6.15;100.00;100631.34;10143250;28;20053;-68
2023/04/11 08:33:45;;;;;;;4.45;3.78;;;;;;;6.14;100.00;100636.00;10133777;28;20540;-68
2023/04/11 08:38:42;;;;;;;5.25;4.05;;;;;;;6.36;100.00;100632.75;10137278;28;20070;-68
2023/04/11 08:43:39;;;;;;;4.60;4.20;;;;;;;6.45;100.00;100632.88;10147927;28;20064;-68
2023/04/11 08:48:35;;;;;;;6.10;3.60;;;;;;;6.48;100.00;100633.13;10138298;28;20034;-68
2023/04/11 08:53:35;;;;;;;5.57;3.30;;;;;;;6.37;100.00;100631.63;10144255;28;20076;-68
2023/04/11 08:58:31;;;;;;;5.85;4.43;;;;;;;6.23;100.00;100630.72;10137601;28;20084;-68
2023/04/11 09:03:49;;;;;;;7.57;4.68;;;;;;;6.49;100.00;100637.44;10143491;28;20117;-69
2023/04/11 09:08:46;;;;;;;7.00;5.32;;;;;;;6.76;100.00;100636.00;10138245;28;20054;-68
2023/04/11 09:13:42;;;;;;;8.10;5.00;;;;;;;7.11;100.00;100636.56;10136425;28;20647;-68
2023/04/11 09:18:45;;;;;;;11.52;6.10;;;;;;;7.28;100.00;100631.34;10133500;28;20046;-68
2023/04/11 09:23:42;;;;;;;7.65;5.15;;;;;;;7.27;100.00;100629.75;10133548;28;20164;-68
2023/04/11 09:28:52;;;;;;;9.38;5.90;;;;;;;7.23;100.00;100634.16;10147554;28;20048;-68
2023/04/11 09:33:53;;;;;;;12.38;6.03;;;;;;;7.17;100.00;100624.47;10140258;28;20053;-68
2023/04/11 09:38:50;;;;;;;11.73;6.90;;;;;;;7.21;100.00;100625.50;10138373;28;20077;-68
2023/04/11 09:43:54;;;;;;;10.10;5.90;;;;;;;7.28;100.00;100642.25;10144265;28;20062;-68
2023/04/11 09:48:53;;;;;;;10.98;6.65;;;;;;;7.57;100.00;100628.41;10144833;28;20066;-68
2023/04/11 09:53:51;;;;;;;9.00;5.60;;;;;;;7.71;100.00;100623.00;10136048;28;20398;-68
2023/04/11 09:58:48;;;;;;;6.85;4.97;;;;;;;8.05;100.00;100620.97;10136161;28;20420;-68
2023/04/11 10:03:49;;;;;;;7.25;4.57;;;;;;;7.82;100.00;100609.19;10147447;28;20052;-68
2023/04/11 10:08:46;;;;;;;5.05;4.20;;;;;;;7.61;100.00;100609.56;10130563;28;20058;-68
2023/04/11 10:13:44;;;;;;;7.78;4.60;;;;;;;7.48;100.00;100618.53;10145530;28;20077;-68
2023/04/11 10:18:49;;;;;;;8.15;4.80;;;;;;;7.49;100.00;100622.84;10141377;28;20516;-68
2023/04/11 10:24:08;;;;;;;6.50;5.43;;;;;;;7.24;100.00;100627.63;10152489;28;20093;-68
2023/04/11 10:29:27;;;;;;;5.78;4.38;;;;;;;6.98;100.00;100661.75;10144501;28;20051;-68
2023/04/11 10:34:23;;;;;;;5.88;4.90;;;;;;;6.79;100.00;100673.44;10143265;28;20116;-67
2023/04/11 10:39:49;;;;;;;5.35;3.97;;;;;;;7.24;100.00;100673.03;10141485;28;20860;-67
2023/04/11 10:45:23;;;;;;;4.70;4.07;;;;;;;7.21;100.00;100674.44;10134430;28;20086;-68
2023/04/11 10:50:22;;;;;;;;;;;;;;;7.27;100.00;100695.03;10142129;28;20411;-68
2023/04/11 10:55:19;;;;;;;5.10;3.60;;;;;;;7.41;100.00;100705.16;10139730;28;19929;-68
2023/04/11 11:00:16;;;;;;;4.05;3.00;;;;;;;7.22;100.00;100681.50;10148157;28;20044;-68
2023/04/11 11:05:16;;;;;;;3.10;2.80;;;;;;;7.07;100.00;100689.91;10141972;28;20047;-68
2023/04/11 11:10:13;;;;;;;2.90;2.60;;;;;;;7.14;100.00;100690.34;10146825;28;20046;-68
2023/04/11 11:15:13;;;;;;;3.45;2.70;;;;;;;7.14;100.00;100690.34;10146764;28;20270;-68
2023/04/11 11:20:18;;;;;;;4.28;2.53;;;;;;;7.76;100.00;100728.25;10145683;28;20518;-68
2023/04/11 11:25:15;;;;;;;3.55;2.88;;;;;;;7.73;100.00;100724.22;10144868;28;20105;-68
2023/04/11 11:30:12;;;;;;;3.30;2.65;;;;;;;7.55;100.00;100749.53;10149001;28;20133;-68
2023/04/11 11:35:12;;;;;;;4.15;2.72;;;;;;;7.60;100.00;100744.00;10140379;28;20082;-68
2023/04/11 11:40:11;;;;;;;3.10;2.80;;;;;;;7.57;100.00;100758.22;10150151;28;20042;-67
2023/04/11 11:45:19;;;;;;;4.60;2.97;;;;;;;7.43;100.00;100758.16;10146576;28;20070;-67
2023/04/11 11:50:30;;;;;;;4.18;3.53;;;;;;;7.26;100.00;100758.66;10148873;28;20471;-67
2023/04/11 11:55:26;;;;;;;5.55;2.80;;;;;;;7.24;100.00;100777.22;10146593;28;20061;-67
2023/04/11 12:00:24;;;;;;;3.63;3.00;;;;;;;7.22;100.00;100784.03;10148575;28;20530;-67
2023/04/11 12:05:23;;;;;;;5.00;3.47;;;;;;;7.21;100.00;100801.47;10148101;28;20054;-67
2023/04/11 12:10:20;;;;;;;6.88;3.20;;;;;;;7.51;100.00;100808.38;10137135;28;20054;-67
2023/04/11 12:15:18;;;;;;;5.00;3.15;;;;;;;7.82;100.00;100818.78;10149308;28;20050;-67
2023/04/11 12:20:15;;;;;;;4.32;3.35;;;;;;;8.71;100.00;100828.69;10147538;28;20046;-67
2023/04/11 12:25:13;;;;;;;8.77;3.47;;;;;;;8.47;100.00;100813.34;10150158;28;20057;-68
2023/04/11 12:30:11;;;;;;;4.43;3.22;;;;;;;8.60;100.00;100830.81;10141261;28;20114;-67
2023/04/11 12:35:08;;;;;;;5.05;3.70;;;;;;;8.78;100.00;100818.19;10136123;28;20038;-67
2023/04/11 12:40:11;;;;;;;5.45;3.95;;;;;;;8.39;100.00;100843.97;10136668;28;20385;-68
2023/04/11 12:45:10;;;;;;;6.13;3.42;;;;;;;8.08;100.00;100849.94;10143177;28;20046;-67
2023/04/11 12:50:07;;;;;;;6.60;4.00;;;;;;;7.76;100.00;100854.25;10148268;28;20048;-68
2023/04/11 12:55:04;;;;;;;4.45;4.05;;;;;;;8.17;100.00;100869.16;10141785;28;20085;-68
2023/04/11 13:00:11;;;;;;;4.85;4.38;;;;;;;9.96;100.00;100851.09;10144946;28;20319;-67
2023/04/11 13:05:09;;;;;;;6.90;4.60;;;;;;;10.96;100.00;100850.69;10140856;28;20046;-68
2023/04/11 13:10:09;;;;;;;6.15;4.40;;;;;;;9.96;100.00;100857.38;10145710;28;20101;-68
2023/04/11 13:15:10;;;;;;;6.32;4.70;;;;;;;9.52;100.00;100863.59;10140758;28;20054;-68
2023/04/11 13:20:08;;;;;;;9.52;5.05;;;;;;;9.04;100.00;100873.84;10140169;28;20510;-68
2023/04/11 13:25:05;;;;;;;8.63;5.93;;;;;;;9.15;100.00;100879.09;10143851;28;20053;-68
2023/04/11 13:30:03;;;;;;;5.82;4.82;;;;;;;8.82;100.00;100881.94;10131985;28;20057;-68
2023/04/11 13:35:00;;;;;;;8.70;5.50;;;;;;;8.43;100.00;100891.34;10143834;28;20481;-68
2023/04/11 13:39:56;;;;;;;13.70;5.38;;;;;;;7.77;100.00;100894.00;10145438;28;20046;-68
2023/04/11 13:44:53;;;;;;;7.60;4.80;;;;;;;7.85;100.00;100910.75;10144672;28;20049;-68
2023/04/11 13:49:49;;;;;;;8.27;5.57;;;;;;;7.57;100.00;100921.50;10140965;28;20050;-68
2023/04/11 13:54:46;;;;;;;7.93;5.22;;;;;;;7.31;100.00;100929.97;10145062;28;20685;-67
2023/04/11 13:59:42;;;;;;;13.85;5.70;;;;;;;7.26;100.00;100942.81;10138022;28;20048;-68
2023/04/11 14:04:39;;;;;;;11.82;4.15;;;;;;;5.41;100.00;100975.97;10141575;28;20126;-67
2023/04/11 14:09:35;;;;;;;10.05;4.63;;;;;;;4.94;100.00;100966.31;10146037;28;20492;-67
2023/04/11 14:14:32;;;;;;;12.88;4.60;;;;;;;5.36;100.00;100968.66;10143424;28;20424;-67
2023/04/11 14:19:28;;;;;;;12.68;4.47;;;;;;;5.67;100.00;100980.19;10147003;28;20577;-69
2023/04/11 14:24:25;;;;;;;11.68;5.20;;;;;;;5.85;100.00;100975.22;10142725;28;20133;-68
2023/04/11 14:29:21;;;;;;;11.95;5.07;;;;;;;5.97;100.00;100983.06;10143139;28;20133;-68
2023/04/11 14:34:18;;;;;;;10.00;4.80;;;;;;;6.20;100.00;100981.56;10138376;28;20057;-68
2023/04/11 14:39:14;;;;;;;13.77;4.85;;;;;;;6.26;100.00;100985.84;10143083;28;20047;-70
2023/04/11 14:44:11;;;;;;;16.20;6.03;;;;;;;6.34;100.00;100987.97;10142856;28;20042;-67
2023/04/11 14:49:08;;;;;;;11.05;5.55;;;;;;;6.43;100.00;100994.44;10145882;28;20129;-67
2023/04/11 14:54:04;;;;;;;14.25;5.93;;;;;;;6.45;100.00;100992.25;10143890;28;20500;-67
2023/04/11 14:59:00;;;;;;;7.80;5.20;;;;;;;6.70;100.00;101001.28;10146934;28;20048;-67
2023/04/11 15:03:57;;;;;;;10.77;5.88;;;;;;;6.79;100.00;100994.13;10134889;28;20042;-68
2023/04/11 15:08:54;;;;;;;12.32;5.65;;;;;;;6.66;100.00;101005.63;10146787;28;20049;-68
2023/04/11 15:13:52;;;;;;;14.13;6.22;;;;;;;6.62;100.00;101010.03;10149973;28;20101;-68
2023/04/11 15:18:49;;;;;;;7.28;5.03;;;;;;;6.49;100.00;101039.44;10144676;28;20046;-67
2023/04/11 15:23:46;;;;;;;10.82;4.82;;;;;;;6.24;100.00;101031.47;10135970;28;20108;-67
2023/04/11 15:28:42;;;;;;;8.20;4.07;;;;;;;6.21;100.00;101029.34;10131392;28;20125;-67
2023/04/11 15:33:41;;;;;;;9.00;4.45;;;;;;;6.34;100.00;101022.47;10139957;28;20038;-67
2023/04/11 15:38:37;;;;;;;7.35;4.65;;;;;;;6.22;100.00;101034.50;10142752;28;20054;-67
2023/04/11 15:43:34;;;;;;;10.27;4.78;;;;;;;6.88;100.00;101030.47;10136078;28;20120;-67
2023/04/11 15:48:31;;;;;;;8.30;4.53;;;;;;;7.32;100.00;101043.09;10137868;28;20137;-67
2023/04/11 15:53:27;;;;;;;7.13;4.78;;;;;;;7.97;100.00;101036.38;10143430;28;20136;-67
2023/04/11 15:58:24;;;;;;;9.40;4.35;;;;;;;7.34;100.00;101032.75;10145809;28;20125;-67
2023/04/11 16:03:22;;;;;;;6.32;3.78;;;;;;;7.18;100.00;101034.00;10136415;28;20511;-67
2023/04/11 16:08:20;;;;;;;7.45;3.47;;;;;;;7.09;100.00;101033.81;10128791;28;20129;-67
2023/04/11 16:13:17;;;;;;;9.15;3.60;;;;;;;6.81;100.00;101046.28;10142547;28;20047;-67
2023/04/11 16:18:14;;;;;;;7.25;3.78;;;;;;;6.67;100.00;101039.88;10143751;28;20047;-68
2023/04/11 16:23:11;;;;;;;12.52;4.30;;;;;;;7.20;100.00;101026.38;10143415;28;20154;-67
2023/04/11 16:28:07;;;;;;;9.32;4.40;;;;;;;8.35;100.00;101033.66;10143759;28;20459;-68
2023/04/11 16:33:04;;;;;;;9.43;3.80;;;;;;;8.12;100.00;101019.84;10135394;28;20050;-67
2023/04/11 16:38:01;;;;;;;8.00;3.85;;;;;;;9.41;100.00;101033.00;10140774;28;20034;-69
2023/04/11 16:42:57;;;;;;;6.45;3.97;;;;;;;8.36;100.00;101030.66;10142967;28;20038;-68
2023/04/11 16:47:53;;;;;;;7.00;3.85;;;;;;;7.70;100.00;101034.25;10143534;28;20053;-69
2023/04/11 16:52:50;;;;;;;5.72;3.63;;;;;;;7.33;100.00;101050.19;10138917;28;20057;-69
2023/04/11 16:57:47;;;;;;;9.32;4.05;;;;;;;7.43;100.00;101056.63;10139977;28;20065;-69
2023/04/11 17:02:43;;;;;;;8.38;4.30;;;;;;;7.21;100.00;101066.06;10136272;28;20046;-69
2023/04/11 17:07:42;;;;;;;7.32;3.70;;;;;;;7.08;100.00;101069.47;10135489;28;20035;-69
2023/04/11 17:12:38;;;;;;;10.77;3.60;;;;;;;7.08;100.00;101072.19;10136085;28;20532;-69
2023/04/11 17:17:35;;;;;;;6.40;4.00;;;;;;;7.06;100.00;101079.81;10139837;28;20053;-69
2023/04/11 17:22:32;;;;;;;11.75;4.07;;;;;;;6.97;100.00;101076.88;10144421;28;20116;-69
2023/04/11 17:27:28;;;;;;;10.07;4.15;;;;;;;6.82;100.00;101077.78;10138565;28;20137;-68
2023/04/11 17:32:25;;;;;;;7.03;3.78;;;;;;;6.77;100.00;101083.28;10138815;28;20041;-68
2023/04/11 17:37:22;;;;;;;9.23;4.13;;;;;;;6.67;100.00;101088.81;10131815;28;20475;-68
2023/04/11 17:42:20;;;;;;;7.20;3.55;;;;;;;6.71;100.00;101089.88;10139509;28;20093;-69
2023/04/11 17:47:16;;;;;;;10.02;4.47;;;;;;;6.67;100.00;101100.47;10133583;28;20065;-69
2023/04/11 17:52:12;;;;;;;7.90;4.03;;;;;;;6.56;100.00;101092.66;10133127;28;20089;-69
2023/04/11 17:57:09;;;;;;;13.57;5.97;;;;;;;6.36;100.00;101094.44;10119514;28;20070;-69
2023/04/11 18:02:06;;;;;;;7.50;3.42;;;;;;;6.34;100.00;101096.59;10134077;28;20127;-68
2023/04/11 18:07:02;;;;;;;10.38;4.40;;;;;;;6.35;100.00;101103.66;10139798;28;20081;-69
2023/04/11 18:11:59;;;;;;;10.88;4.25;;;;;;;6.21;100.00;101108.06;10137716;28;20112;-69
2023/04/11 18:16:56;;;;;;;11.07;4.35;;;;;;;6.20;100.00;101111.91;10139861;28;20050;-69
2023/04/11 18:21:52;;;;;;;8.95;4.80;;;;;;;6.08;100.00;101104.88;10149563;28;20461;-68
2023/04/11 18:26:50;;;;;;;16.30;6.10;;;;;;;6.06;100.00;101111.69;10149131;28;20065;-69
2023/04/11 18:31:46;;;;;;;12.30;4.30;;;;;;;5.99;100.00;101127.44;10142761;28;20140;-69
2023/04/11 18:36:43;;;;;;;12.85;4.57;;;;;;;5.96;100.00;101126.06;10146052;28;20058;-69
2023/04/11 18:41:40;;;;;;;10.05;4.65;;;;;;;5.99;100.00;101122.84;10147215;28;20054;-69
2023/04/11 18:46:37;;;;;;;7.45;4.57;;;;;;;5.91;100.00;101131.50;10140863;28;20461;-69
2023/04/11 18:51:34;;;;;;;12.90;4.65;;;;;;;5.82;100.00;101130.44;10143459;28;20066;-69
2023/04/11 18:56:30;;;;;;;13.80;5.45;;;;;;;5.73;100.00;101134.81;10151086;28;20066;-69
2023/04/11 19:01:27;;;;;;;11.18;5.68;;;;;;;5.65;100.00;101139.69;10141158;28;20109;-69
2023/04/11 19:06:25;;;;;;;12.38;5.88;;;;;;;5.62;100.00;101128.59;10141086;28;20054;-69
2023/04/11 19:11:21;;;;;;;8.82;5.60;;;;;;;5.48;100.00;101133.78;10142921;28;20078;-69
2023/04/11 19:16:18;;;;;;;10.52;5.85;;;;;;;5.52;100.00;101129.41;10141243;28;20050;-69
2023/04/11 19:21:14;;;;;;;14.35;6.18;;;;;;;5.39;100.00;101124.56;10146387;28;20054;-69
2023/04/11 19:26:11;;;;;;;9.80;6.47;;;;;;;5.32;100.00;101124.03;10151420;28;20515;-68
2023/04/11 19:31:08;;;;;;;10.63;6.20;;;;;;;5.20;100.00;101122.41;10146131;28;20166;-68
2023/04/11 19:36:05;;;;;;;14.73;6.78;;;;;;;5.15;100.00;101119.72;10145290;28;20074;-68
2023/04/11 19:41:18;;;;;;;11.38;6.35;;;;;;;5.00;100.00;101116.97;10137667;28;20447;-68
2023/04/11 19:46:15;;;;;;;10.82;6.05;;;;;;;4.87;100.00;101112.09;10139534;28;20444;-68
2023/04/11 19:51:12;;;;;;;11.52;5.72;;;;;;;4.81;100.00;101120.22;10146389;28;20481;-69
2023/04/11 19:56:09;;;;;;;10.80;5.72;;;;;;;4.79;100.00;101111.53;10144490;28;20066;-70
2023/04/11 20:01:06;;;;;;;12.45;6.55;;;;;;;4.75;100.00;101115.88;10148645;28;20042;-69
2023/04/11 20:06:02;;;;;;;13.70;6.88;;;;;;;4.68;100.00;101107.19;10130087;28;20819;-69
2023/04/11 20:11:02;;;;;;;8.30;5.70;;;;;;;4.60;100.00;101107.75;10142709;28;20061;-71
2023/04/11 20:16:03;;;;;;;11.52;5.80;;;;;;;4.48;100.00;101104.44;10145014;28;20057;-76
2023/04/11 20:21:06;;;;;;;11.10;6.43;;;;;;;4.42;100.00;101101.72;10145393;28;20038;-74
2023/04/11 20:26:02;;;;;;;11.27;6.20;;;;;;;4.31;100.00;101099.25;10142018;28;20054;-73
2023/04/11 20:53:13;;;;;;;11.57;6.88;;;;;;;3.99;100.00;101103.75;10317804;22;20133;-74
2023/04/11 20:59:37;;;;;;;;;;;;;;;;;;;;;
2023/04/11 21:22:33;;;;;;;8.38;5.80;;;;;;;3.69;100.00;101081.94;10125851;28;20047;-72
2023/04/11 21:27:30;;;;;;;17.75;6.40;;;;;;;3.67;100.00;101073.31;10104196;28;20050;-72
2023/04/11 21:32:26;;;;;;;15.95;6.95;;;;;;;3.65;100.00;101064.66;10145155;28;20073;-72
2023/04/11 21:37:23;;;;;;;11.40;6.43;;;;;;;3.58;100.00;101071.09;10180898;28;20132;-72
2023/04/11 21:42:19;;;;;;;13.73;7.30;;;;;;;3.48;100.00;101054.00;10188303;28;20545;-72
2023/04/11 21:47:17;;;;;;;14.23;8.10;;;;;;;3.50;100.00;101066.16;10187416;28;20129;-72
2023/04/11 21:52:14;;;;;;;10.90;6.72;;;;;;;3.45;100.00;101049.94;10182663;28;20050;-71
2023/04/11 21:57:10;;;;;;;17.17;9.02;;;;;;;3.40;100.00;101049.91;10185877;28;20049;-71
2023/04/11 22:02:07;;;;;;;32.42;13.25;;;;;;;3.39;100.00;101048.28;10184683;28;20088;-72
2023/04/11 22:07:05;;;;;;;27.85;14.93;;;;;;;3.30;100.00;101049.84;10186412;28;20696;-71
2023/04/11 22:12:01;;;;;;;22.35;11.80;;;;;;;3.39;100.00;101048.28;10179169;28;20420;-73
2023/04/11 22:16:59;;;;;;;26.42;11.65;;;;;;;3.47;100.00;101042.38;10181297;28;20050;-74
2023/04/11 22:21:55;;;;;;;17.45;10.32;;;;;;;3.53;100.00;101049.44;10182625;28;20045;-74
2023/04/11 22:26:57;;;;;;;22.63;10.35;;;;;;;3.58;100.00;101037.84;10181366;28;20074;-74
2023/04/11 22:31:53;;;;;;;18.55;9.82;;;;;;;3.49;100.00;101024.00;10184237;28;20511;-71
2023/04/11 22:36:50;;;;;;;15.15;9.68;;;;;;;3.41;100.00;101024.50;10186782;28;20050;-71
2023/04/11 22:41:49;;;;;;;12.80;8.88;;;;;;;3.39;100.00;101023.97;10190925;28;20534;-71
2023/04/11 22:47:07;;;;;;;13.30;9.30;;;;;;;3.33;100.00;101022.31;10189522;28;20540;-73
2023/04/11 22:52:04;;;;;;;17.08;9.93;;;;;;;3.32;100.00;101028.78;10202418;28;20153;-69
2023/04/11 22:57:00;;;;;;;13.95;8.45;;;;;;;3.29;100.00;101029.28;10193051;28;20081;-70
2023/04/11 23:01:57;;;;;;;16.50;8.18;;;;;;;3.35;100.00;101017.44;10192626;28;20077;-70
2023/04/11 23:06:53;;;;;;;12.82;8.65;;;;;;;3.37;100.00;101009.91;10192803;28;20555;-71
2023/04/11 23:11:51;;;;;;;12.00;7.90;;;;;;;3.43;100.00;101008.81;10201702;28;20073;-70
2023/04/11 23:16:47;;;;;;;15.20;7.65;;;;;;;3.41;100.00;101000.16;10193020;28;20061;-70
2023/04/11 23:21:44;;;;;;;11.25;7.60;;;;;;;3.38;100.00;101000.69;10196244;28;20058;-71
2023/04/11 23:31:52;;;;;;;10.40;6.60;;;;;;;3.36;100.00;100994.75;10328274;22;20049;-72
2023/04/11 23:36:49;;;;;;;11.07;6.78;;;;;;;3.35;100.00;100991.22;10259391;28;20084;-72